Time;durP1;ratioP1;P1;durP2;ratioP2;P2;SDS_P1;SDS_P2;PMS_P1;PMS_P2;Temp;Humidity;BMP_temperature;BMP_pressure;BME280_temperature;BME280_humidity;BME280_pressure;Samples;Min_cycle;Max_cycle;Signal;HPM_P1;HPM_P2
2021/04/08 00:02:09;;;;;;;5.07;1.38;;;;;;;;;;4992779;28;20550;-79
2021/04/08 00:04:35;;;;;;;9.60;1.50;;;;;;;;;;4989493;28;20062;-75
2021/04/08 00:07:01;;;;;;;3.80;1.30;;;;;;;;;;4984695;28;20026;-76
2021/04/08 00:09:27;;;;;;;5.15;1.55;;;;;;;;;;5011665;28;20041;-78
2021/04/08 00:11:57;;;;;;;2.20;1.10;;;;;;;;;;4994202;28;20038;-76
2021/04/08 00:14:26;;;;;;;3.13;1.30;;;;;;;;;;5011729;28;20499;-75
2021/04/08 00:16:53;;;;;;;2.78;1.40;;;;;;;;;;5003657;28;20033;-86
2021/04/08 00:19:19;;;;;;;3.28;1.40;;;;;;;;;;4992451;28;20023;-78
2021/04/08 00:21:45;;;;;;;3.95;1.80;;;;;;;;;;4999852;28;20046;-75
2021/04/08 00:24:11;;;;;;;3.53;1.33;;;;;;;;;;5011340;28;20567;-81
2021/04/08 00:26:37;;;;;;;2.78;1.30;;;;;;;;;;4994361;28;20169;-79
2021/04/08 00:29:03;;;;;;;2.97;1.33;;;;;;;;;;4994270;28;20041;-80
2021/04/08 00:31:29;;;;;;;3.15;1.40;;;;;;;;;;5005456;28;20039;-87
2021/04/08 00:33:55;;;;;;;4.82;2.00;;;;;;;;;;4978963;28;20401;-85
2021/04/08 00:36:21;;;;;;;3.17;1.48;;;;;;;;;;4978826;28;20478;-82
2021/04/08 00:38:47;;;;;;;4.47;1.92;;;;;;;;;;4978725;28;20505;-77
2021/04/08 00:41:13;;;;;;;3.05;1.50;;;;;;;;;;5011865;28;20105;-79
2021/04/08 00:43:40;;;;;;;5.28;1.88;;;;;;;;;;4998675;28;20022;-78
2021/04/08 00:46:06;;;;;;;3.85;1.90;;;;;;;;;;4998465;28;20379;-80
2021/04/08 00:48:32;;;;;;;3.45;1.55;;;;;;;;;;5015759;28;20025;-82
2021/04/08 00:50:58;;;;;;;4.25;2.00;;;;;;;;;;5016966;28;20382;-89
2021/04/08 00:53:26;;;;;;;3.72;1.95;;;;;;;;;;5017854;28;20096;-87
2021/04/08 00:55:52;;;;;;;3.90;1.60;;;;;;;;;;4998392;28;20493;-80
2021/04/08 00:58:20;;;;;;;3.13;1.70;;;;;;;;;;5015587;28;20026;-75
2021/04/08 01:00:46;;;;;;;13.63;1.70;;;;;;;;;;5015524;28;20033;-75
2021/04/08 01:03:13;;;;;;;3.78;1.45;;;;;;;;;;5015954;28;20026;-80
2021/04/08 01:05:39;;;;;;;4.82;1.90;;;;;;;;;;4992425;28;20027;-71
2021/04/08 01:08:06;;;;;;;5.45;1.35;;;;;;;;;;4990253;28;20054;-72
2021/04/08 01:10:32;;;;;;;4.18;1.40;;;;;;;;;;4976224;28;20062;-74
2021/04/08 01:13:01;;;;;;;4.60;1.80;;;;;;;;;;4978948;28;20033;-75
2021/04/08 01:15:28;;;;;;;3.45;1.50;;;;;;;;;;4977050;28;20033;-76
2021/04/08 01:17:57;;;;;;;3.40;1.88;;;;;;;;;;4977172;28;20050;-72
2021/04/08 01:20:41;;;;;;;4.20;2.05;;;;;;;;;;4977746;28;20038;-73
2021/04/08 01:23:26;;;;;;;3.88;1.95;;;;;;;;;;5008717;28;20026;-74
2021/04/08 01:26:11;;;;;;;4.03;1.90;;;;;;;;;;4981106;28;20053;-74
2021/04/08 01:28:41;;;;;;;6.95;2.40;;;;;;;;;;4977775;28;20010;-74
2021/04/08 01:31:12;;;;;;;5.00;2.58;;;;;;;;;;4995196;28;20029;-74
2021/04/08 01:33:44;;;;;;;3.55;1.88;;;;;;;;;;4995142;28;20060;-73
2021/04/08 01:36:14;;;;;;;4.43;2.03;;;;;;;;;;4977806;28;20029;-74
2021/04/08 01:38:42;;;;;;;6.78;2.20;;;;;;;;;;4995258;28;20027;-74
2021/04/08 01:41:09;;;;;;;4.95;2.10;;;;;;;;;;4977314;28;20563;-73
2021/04/08 01:43:38;;;;;;;6.25;2.03;;;;;;;;;;4977516;28;20053;-74
2021/04/08 01:46:05;;;;;;;3.13;1.73;;;;;;;;;;4977391;28;20442;-73
2021/04/08 01:48:32;;;;;;;5.07;2.10;;;;;;;;;;4994996;28;20125;-73
2021/04/08 01:50:59;;;;;;;4.43;2.15;;;;;;;;;;4994615;28;20526;-74
2021/04/08 01:53:26;;;;;;;4.07;1.90;;;;;;;;;;4994531;28;20511;-74
2021/04/08 01:55:54;;;;;;;5.70;1.55;;;;;;;;;;4994899;28;20030;-74
2021/04/08 01:58:21;;;;;;;4.28;2.00;;;;;;;;;;4994676;28;20026;-74
2021/04/08 02:00:47;;;;;;;3.55;1.42;;;;;;;;;;4994881;28;20035;-74
2021/04/08 02:03:15;;;;;;;3.35;1.60;;;;;;;;;;4977162;28;20026;-74
2021/04/08 02:05:41;;;;;;;10.13;1.90;;;;;;;;;;4983246;28;20035;-74
2021/04/08 02:08:08;;;;;;;3.88;2.00;;;;;;;;;;4973905;28;20019;-75
2021/04/08 02:10:34;;;;;;;5.15;1.77;;;;;;;;;;4975004;28;20109;-74
2021/04/08 02:13:01;;;;;;;4.15;2.03;;;;;;;;;;4974781;28;20046;-74
2021/04/08 02:15:27;;;;;;;4.22;1.92;;;;;;;;;;4979440;28;20105;-74
2021/04/08 02:17:54;;;;;;;3.13;1.60;;;;;;;;;;4976790;28;20486;-74
2021/04/08 02:20:22;;;;;;;3.05;1.70;;;;;;;;;;4975979;28;20052;-73
2021/04/08 02:22:49;;;;;;;4.32;1.90;;;;;;;;;;4994393;28;20045;-74
2021/04/08 02:25:16;;;;;;;3.88;1.55;;;;;;;;;;4977560;28;20026;-73
2021/04/08 02:27:43;;;;;;;7.80;1.80;;;;;;;;;;4995845;28;20027;-72
2021/04/08 02:30:12;;;;;;;4.75;1.55;;;;;;;;;;4994296;28;20066;-76
2021/04/08 02:32:38;;;;;;;6.07;1.80;;;;;;;;;;4975747;28;20057;-71
2021/04/08 02:35:06;;;;;;;4.00;1.90;;;;;;;;;;4993471;28;20440;-72
2021/04/08 02:37:32;;;;;;;4.80;1.80;;;;;;;;;;4993425;28;20058;-71
2021/04/08 02:39:58;;;;;;;4.22;1.70;;;;;;;;;;4993477;28;20011;-71
2021/04/08 02:42:24;;;;;;;8.82;2.00;;;;;;;;;;4992913;28;20022;-71
2021/04/08 02:44:50;;;;;;;3.67;1.63;;;;;;;;;;4992938;28;20096;-71
2021/04/08 02:47:16;;;;;;;4.03;1.75;;;;;;;;;;4982758;28;20550;-71
2021/04/08 02:49:42;;;;;;;3.30;1.50;;;;;;;;;;4993005;28;20076;-72
2021/04/08 02:52:11;;;;;;;3.00;1.60;;;;;;;;;;4975427;28;20041;-71
2021/04/08 02:54:47;;;;;;;4.15;1.73;;;;;;;;;;4992868;28;20084;-71
2021/04/08 02:57:17;;;;;;;4.07;1.85;;;;;;;;;;4993013;28;20030;-71
2021/04/08 02:59:46;;;;;;;4.10;1.50;;;;;;;;;;4992843;28;20038;-71
2021/04/08 03:02:14;;;;;;;4.13;1.90;;;;;;;;;;4992501;28;20088;-71
2021/04/08 03:04:43;;;;;;;4.18;1.50;;;;;;;;;;4992694;28;20387;-71
2021/04/08 03:07:12;;;;;;;4.72;1.83;;;;;;;;;;4992624;28;20105;-71
2021/04/08 03:09:40;;;;;;;4.47;1.85;;;;;;;;;;4992687;28;20026;-71
2021/04/08 03:12:07;;;;;;;5.32;2.20;;;;;;;;;;4975168;28;20041;-71
2021/04/08 03:14:35;;;;;;;4.88;2.13;;;;;;;;;;4992507;28;20045;-71
2021/04/08 03:17:02;;;;;;;3.60;1.70;;;;;;;;;;4992445;28;20048;-71
2021/04/08 03:19:29;;;;;;;3.28;1.65;;;;;;;;;;4992515;28;20045;-72
2021/04/08 03:21:55;;;;;;;3.50;1.63;;;;;;;;;;4971801;28;20050;-71
2021/04/08 03:24:22;;;;;;;3.55;1.40;;;;;;;;;;4972773;28;20050;-71
2021/04/08 03:26:49;;;;;;;3.50;1.45;;;;;;;;;;4973054;28;20030;-71
2021/04/08 03:29:15;;;;;;;3.03;1.30;;;;;;;;;;4973071;28;20470;-72
2021/04/08 03:31:43;;;;;;;3.30;1.38;;;;;;;;;;4971534;28;20061;-71
2021/04/08 03:34:09;;;;;;;4.15;1.30;;;;;;;;;;4973099;28;20033;-71
2021/04/08 03:36:36;;;;;;;3.00;1.25;;;;;;;;;;4972824;28;20029;-71
2021/04/08 03:39:02;;;;;;;2.95;1.20;;;;;;;;;;4972805;28;20027;-71
2021/04/08 03:41:28;;;;;;;3.17;1.13;;;;;;;;;;4971377;28;20085;-71
2021/04/08 03:43:54;;;;;;;8.05;1.15;;;;;;;;;;4972591;28;20599;-71
2021/04/08 03:46:20;;;;;;;3.85;1.20;;;;;;;;;;4972504;28;20114;-71
2021/04/08 03:48:47;;;;;;;3.20;1.20;;;;;;;;;;4972635;28;20554;-71
2021/04/08 03:51:14;;;;;;;5.65;1.40;;;;;;;;;;4972599;28;20059;-71
2021/04/08 03:53:41;;;;;;;3.28;1.30;;;;;;;;;;4972641;28;20031;-71
2021/04/08 03:56:08;;;;;;;2.00;1.10;;;;;;;;;;4972657;28;20113;-71
2021/04/08 03:58:35;;;;;;;4.35;1.33;;;;;;;;;;4972273;28;20030;-71
2021/04/08 04:01:01;;;;;;;3.70;1.17;;;;;;;;;;4972361;28;20034;-71
2021/04/08 04:03:28;;;;;;;2.72;1.30;;;;;;;;;;4971998;28;20475;-71
2021/04/08 04:05:54;;;;;;;2.50;1.10;;;;;;;;;;4972341;28;20035;-71
2021/04/08 04:08:20;;;;;;;3.20;1.40;;;;;;;;;;4972279;28;20523;-72
2021/04/08 04:10:46;;;;;;;5.07;1.45;;;;;;;;;;4972531;28;20026;-72
2021/04/08 04:13:15;;;;;;;4.53;1.48;;;;;;;;;;4970951;28;20085;-71
2021/04/08 04:15:42;;;;;;;3.92;1.30;;;;;;;;;;4972269;28;20027;-71
2021/04/08 04:18:09;;;;;;;3.03;1.40;;;;;;;;;;4971255;28;20019;-71
2021/04/08 04:20:35;;;;;;;3.13;1.58;;;;;;;;;;4973652;28;20061;-71
2021/04/08 04:23:05;;;;;;;4.78;1.50;;;;;;;;;;4991777;28;20033;-71
2021/04/08 04:25:31;;;;;;;2.67;1.35;;;;;;;;;;4974300;28;20104;-71
2021/04/08 04:27:58;;;;;;;4.32;1.30;;;;;;;;;;4991546;28;20427;-71
2021/04/08 04:30:24;;;;;;;2.85;1.02;;;;;;;;;;4991468;28;20021;-71
2021/04/08 04:32:53;;;;;;;3.80;1.40;;;;;;;;;;4991393;28;20056;-72
2021/04/08 04:35:19;;;;;;;3.03;1.20;;;;;;;;;;4991512;28;20086;-71
2021/04/08 04:37:45;;;;;;;3.35;1.20;;;;;;;;;;4991421;28;20026;-71
2021/04/08 04:40:12;;;;;;;5.25;1.40;;;;;;;;;;4991589;28;20077;-71
2021/04/08 04:42:38;;;;;;;2.20;0.93;;;;;;;;;;4974155;28;20072;-71
2021/04/08 04:45:05;;;;;;;1.60;0.90;;;;;;;;;;4991684;28;20022;-71
2021/04/08 04:47:31;;;;;;;2.53;1.20;;;;;;;;;;4971193;28;20081;-72
2021/04/08 04:49:57;;;;;;;4.53;1.52;;;;;;;;;;4971401;28;20034;-72
2021/04/08 04:52:24;;;;;;;4.57;1.23;;;;;;;;;;4991198;28;20038;-71
2021/04/08 04:54:50;;;;;;;3.25;1.40;;;;;;;;;;4973923;28;20026;-72
2021/04/08 04:57:16;;;;;;;3.60;1.30;;;;;;;;;;4991379;28;20022;-71
2021/04/08 04:59:42;;;;;;;3.03;1.35;;;;;;;;;;4991419;28;20023;-71
2021/04/08 05:02:10;;;;;;;4.03;1.40;;;;;;;;;;4973933;28;20364;-71
2021/04/08 05:04:37;;;;;;;3.80;1.10;;;;;;;;;;4991081;28;20023;-72
2021/04/08 05:07:04;;;;;;;5.68;1.42;;;;;;;;;;4991100;28;20046;-72
2021/04/08 05:09:30;;;;;;;3.60;1.30;;;;;;;;;;4991229;28;20026;-71
2021/04/08 05:11:56;;;;;;;2.42;1.00;;;;;;;;;;4991108;28;20041;-71
2021/04/08 05:14:22;;;;;;;3.13;1.20;;;;;;;;;;4973801;28;20577;-72
2021/04/08 05:16:48;;;;;;;1.50;0.88;;;;;;;;;;4975760;28;20027;-72
2021/04/08 05:19:14;;;;;;;2.72;1.02;;;;;;;;;;4976483;28;20034;-72
2021/04/08 05:21:40;;;;;;;2.92;1.13;;;;;;;;;;4976791;28;20074;-72
2021/04/08 05:24:08;;;;;;;2.58;1.13;;;;;;;;;;4976995;28;20054;-72
2021/04/08 05:26:34;;;;;;;2.92;1.17;;;;;;;;;;4994183;28;20235;-71
2021/04/08 05:29:00;;;;;;;2.10;1.15;;;;;;;;;;4977043;28;20142;-71
2021/04/08 05:31:26;;;;;;;3.40;1.15;;;;;;;;;;4994519;28;20026;-71
2021/04/08 05:33:52;;;;;;;3.10;1.17;;;;;;;;;;4994624;28;20026;-71
2021/04/08 05:36:18;;;;;;;1.88;0.90;;;;;;;;;;4994190;28;20026;-71
2021/04/08 05:38:44;;;;;;;2.72;1.23;;;;;;;;;;4976932;28;20104;-71
2021/04/08 05:41:10;;;;;;;2.67;1.00;;;;;;;;;;4994258;28;20038;-72
2021/04/08 05:43:37;;;;;;;2.70;1.00;;;;;;;;;;4994323;28;20022;-70
2021/04/08 05:46:06;;;;;;;2.67;1.13;;;;;;;;;;4994410;28;20027;-71
2021/04/08 05:48:32;;;;;;;2.20;1.10;;;;;;;;;;4976958;28;20383;-71
2021/04/08 05:50:58;;;;;;;2.60;1.13;;;;;;;;;;4976843;28;20027;-71
2021/04/08 05:53:24;;;;;;;2.20;1.30;;;;;;;;;;4994217;28;20045;-71
2021/04/08 05:55:50;;;;;;;1.75;0.90;;;;;;;;;;4994122;28;20475;-72
2021/04/08 05:58:16;;;;;;;3.92;1.00;;;;;;;;;;4976144;28;20034;-71
2021/04/08 06:00:42;;;;;;;3.38;1.00;;;;;;;;;;4976419;28;20648;-71
2021/04/08 06:03:08;;;;;;;1.58;0.80;;;;;;;;;;4993985;28;20510;-71
2021/04/08 06:05:35;;;;;;;1.73;0.77;;;;;;;;;;4973956;28;20029;-71
2021/04/08 06:08:01;;;;;;;1.27;0.70;;;;;;;;;;4973733;28;20053;-71
2021/04/08 06:10:27;;;;;;;2.00;0.77;;;;;;;;;;4973701;28;20027;-71
2021/04/08 06:12:54;;;;;;;4.22;0.90;;;;;;;;;;4973385;28;20073;-71
2021/04/08 06:15:20;;;;;;;3.45;0.90;;;;;;;;;;4992814;28;20160;-71
2021/04/08 06:17:46;;;;;;;2.35;1.00;;;;;;;;;;4993058;28;20023;-72
2021/04/08 06:20:12;;;;;;;2.55;1.35;;;;;;;;;;4992152;28;20018;-71
2021/04/08 06:22:39;;;;;;;2.33;1.00;;;;;;;;;;4992639;28;20050;-71
2021/04/08 06:25:05;;;;;;;2.30;0.88;;;;;;;;;;4992912;28;20031;-71
2021/04/08 06:27:34;;;;;;;2.22;0.88;;;;;;;;;;4991726;28;20618;-71
2021/04/08 06:30:00;;;;;;;1.70;0.77;;;;;;;;;;4975099;28;20050;-71
2021/04/08 06:32:26;;;;;;;1.30;0.63;;;;;;;;;;4992412;28;20486;-72
2021/04/08 06:34:53;;;;;;;1.75;0.80;;;;;;;;;;4992666;28;20034;-71
2021/04/08 06:37:19;;;;;;;1.48;0.85;;;;;;;;;;4993346;28;20230;-71
2021/04/08 06:39:45;;;;;;;1.90;0.80;;;;;;;;;;4993244;28;20026;-71
2021/04/08 06:42:14;;;;;;;1.42;0.77;;;;;;;;;;4975593;28;20022;-72
2021/04/08 06:44:41;;;;;;;1.92;0.77;;;;;;;;;;4975697;28;20019;-71
2021/04/08 06:47:07;;;;;;;2.20;0.73;;;;;;;;;;4992954;28;20501;-71
2021/04/08 06:49:44;;;;;;;1.75;0.77;;;;;;;;;;4990031;28;20352;-71
2021/04/08 06:52:11;;;;;;;1.20;0.70;;;;;;;;;;4955968;28;20399;-72
2021/04/08 06:54:38;;;;;;;1.10;0.65;;;;;;;;;;4956127;28;20027;-72
2021/04/08 06:57:04;;;;;;;1.45;0.68;;;;;;;;;;4973492;28;20022;-71
2021/04/08 06:59:32;;;;;;;2.05;0.80;;;;;;;;;;4973596;28;20400;-72
2021/04/08 07:01:59;;;;;;;2.30;0.70;;;;;;;;;;4978960;28;20478;-72
2021/04/08 07:04:25;;;;;;;1.55;0.70;;;;;;;;;;5002639;28;20033;-72
2021/04/08 07:06:51;;;;;;;1.80;0.82;;;;;;;;;;4980571;28;20451;-72
2021/04/08 07:09:17;;;;;;;3.00;1.00;;;;;;;;;;5001449;28;20113;-72
2021/04/08 07:11:43;;;;;;;1.67;0.77;;;;;;;;;;5001384;28;20064;-71
2021/04/08 07:14:11;;;;;;;1.70;0.80;;;;;;;;;;4985201;28;20067;-71
2021/04/08 07:16:38;;;;;;;1.58;0.70;;;;;;;;;;4983863;28;20037;-72
2021/04/08 07:19:04;;;;;;;1.73;0.80;;;;;;;;;;5001335;28;20065;-72
2021/04/08 07:21:32;;;;;;;2.78;0.65;;;;;;;;;;4980765;28;20134;-72
2021/04/08 07:24:09;;;;;;;5.88;1.00;;;;;;;;;;4973319;28;20027;-73
2021/04/08 07:26:58;;;;;;;2.38;0.88;;;;;;;;;;4972907;28;20033;-73
2021/04/08 07:29:44;;;;;;;1.33;0.70;;;;;;;;;;4968096;28;20101;-77
2021/04/08 07:32:11;;;;;;;1.70;0.90;;;;;;;;;;4972136;28;20077;-74
2021/04/08 07:34:39;;;;;;;1.70;0.90;;;;;;;;;;4972061;28;20023;-74
2021/04/08 07:37:05;;;;;;;2.67;0.90;;;;;;;;;;4973234;28;20130;-74
2021/04/08 07:39:39;;;;;;;2.78;0.85;;;;;;;;;;4971373;28;20096;-73
2021/04/08 07:42:06;;;;;;;6.32;0.98;;;;;;;;;;4973086;28;20031;-76
2021/04/08 07:44:42;;;;;;;2.95;0.93;;;;;;;;;;4971736;28;20023;-74
2021/04/08 07:47:17;;;;;;;1.95;0.80;;;;;;;;;;4973306;28;20411;-72
2021/04/08 07:49:43;;;;;;;2.25;0.93;;;;;;;;;;4971744;28;20554;-74
2021/04/08 07:52:16;;;;;;;1.60;0.57;;;;;;;;;;4973014;28;20045;-76
2021/04/08 07:54:57;;;;;;;2.53;0.90;;;;;;;;;;4972135;28;20373;-73
2021/04/08 07:57:23;;;;;;;2.40;0.77;;;;;;;;;;4972916;28;20058;-73
2021/04/08 07:59:50;;;;;;;2.80;0.60;;;;;;;;;;4972936;28;20030;-78
2021/04/08 08:02:17;;;;;;;1.60;0.70;;;;;;;;;;4980277;28;20022;-75
2021/04/08 08:04:43;;;;;;;1.88;0.70;;;;;;;;;;4981329;28;20015;-75
2021/04/08 08:07:25;;;;;;;1.75;0.90;;;;;;;;;;4979048;28;20027;-80
2021/04/08 08:09:51;;;;;;;;;;;;;;;;;;4971809;28;20027;-72
2021/04/08 08:12:18;;;;;;;8.32;0.90;;;;;;;;;;4972578;28;19942;-73
2021/04/08 08:14:44;;;;;;;7.10;1.17;;;;;;;;;;4972908;28;20023;-72
2021/04/08 08:17:11;;;;;;;2.65;0.82;;;;;;;;;;4972874;28;20039;-72
2021/04/08 08:19:38;;;;;;;5.65;1.00;;;;;;;;;;4973139;28;20027;-72
2021/04/08 08:22:06;;;;;;;3.25;1.10;;;;;;;;;;4990954;28;20042;-72
2021/04/08 08:24:33;;;;;;;2.83;0.95;;;;;;;;;;4991947;28;20034;-72
2021/04/08 08:26:59;;;;;;;3.60;0.90;;;;;;;;;;4991092;28;20031;-74
2021/04/08 08:29:30;;;;;;;5.30;1.27;;;;;;;;;;4987762;28;20027;-75
2021/04/08 08:31:58;;;;;;;5.70;1.10;;;;;;;;;;4971013;28;20373;-72
2021/04/08 08:34:40;;;;;;;2.85;1.20;;;;;;;;;;4972721;28;20038;-72
2021/04/08 08:37:10;;;;;;;6.55;1.05;;;;;;;;;;4971583;28;20019;-71
2021/04/08 08:39:41;;;;;;;2.08;0.90;;;;;;;;;;4971492;28;20094;-72
2021/04/08 08:42:12;;;;;;;2.50;0.80;;;;;;;;;;4973203;28;20098;-72
2021/04/08 08:44:38;;;;;;;4.00;0.88;;;;;;;;;;4972674;28;20058;-72
2021/04/08 08:47:05;;;;;;;1.95;0.80;;;;;;;;;;4972103;28;20030;-72
2021/04/08 08:49:40;;;;;;;5.40;1.00;;;;;;;;;;4972047;28;20033;-71
2021/04/08 08:52:06;;;;;;;4.03;0.85;;;;;;;;;;4975348;28;20082;-71
2021/04/08 08:54:33;;;;;;;1.30;0.60;;;;;;;;;;4976081;28;20019;-73
2021/04/08 08:57:00;;;;;;;2.15;0.73;;;;;;;;;;4976421;28;20023;-70
2021/04/08 08:59:28;;;;;;;4.82;0.95;;;;;;;;;;4976327;28;20027;-73
2021/04/08 09:01:54;;;;;;;3.08;0.70;;;;;;;;;;4976084;28;20027;-71
2021/04/08 09:04:21;;;;;;;2.83;0.93;;;;;;;;;;4974291;28;20031;-70
2021/04/08 09:06:47;;;;;;;4.05;0.80;;;;;;;;;;4972841;28;20067;-74
2021/04/08 09:09:15;;;;;;;1.90;0.80;;;;;;;;;;4976327;28;20023;-71
2021/04/08 09:11:43;;;;;;;4.00;0.85;;;;;;;;;;4976152;28;20031;-71
2021/04/08 09:14:11;;;;;;;5.18;0.80;;;;;;;;;;4975863;28;20034;-72
2021/04/08 09:16:47;;;;;;;1.50;0.80;;;;;;;;;;4975786;28;20571;-72
2021/04/08 09:19:23;;;;;;;3.88;1.10;;;;;;;;;;4975939;28;20018;-72
2021/04/08 09:21:50;;;;;;;2.17;0.90;;;;;;;;;;4988262;28;20140;-70
2021/04/08 09:24:21;;;;;;;3.58;0.90;;;;;;;;;;4995227;28;20085;-72
2021/04/08 09:26:50;;;;;;;4.07;0.80;;;;;;;;;;4995117;28;20138;-74
2021/04/08 09:29:31;;;;;;;1.33;0.70;;;;;;;;;;4977970;28;20491;-72
2021/04/08 09:32:16;;;;;;;2.05;0.60;;;;;;;;;;4995180;28;20030;-73
2021/04/08 09:35:01;;;;;;;3.22;0.80;;;;;;;;;;4994872;28;20035;-72
2021/04/08 09:37:27;;;;;;;1.80;0.70;;;;;;;;;;4994602;28;20042;-76
2021/04/08 09:39:53;;;;;;;1.42;0.73;;;;;;;;;;4977675;28;20149;-72
2021/04/08 09:42:20;;;;;;;3.13;0.80;;;;;;;;;;4994773;28;20022;-76
2021/04/08 09:44:46;;;;;;;3.63;0.90;;;;;;;;;;4984875;28;20418;-72
2021/04/08 09:47:12;;;;;;;3.10;0.98;;;;;;;;;;4975298;28;20384;-72
2021/04/08 09:49:41;;;;;;;2.33;0.77;;;;;;;;;;4975390;28;20015;-73
2021/04/08 09:52:11;;;;;;;5.07;1.02;;;;;;;;;;4957862;28;20038;-72
2021/04/08 09:54:40;;;;;;;3.05;0.90;;;;;;;;;;4970757;28;20030;-72
2021/04/08 09:57:07;;;;;;;3.53;0.77;;;;;;;;;;4994771;28;20026;-72
2021/04/08 09:59:53;;;;;;;2.38;0.70;;;;;;;;;;4977340;28;20109;-74
2021/04/08 10:02:19;;;;;;;4.28;0.82;;;;;;;;;;4976832;28;20026;-72
2021/04/08 10:05:01;;;;;;;1.73;0.75;;;;;;;;;;4994037;28;20022;-73
2021/04/08 10:07:27;;;;;;;7.18;0.80;;;;;;;;;;4994390;28;20375;-71
2021/04/08 10:09:54;;;;;;;1.27;0.60;;;;;;;;;;4994494;28;20028;-71
2021/04/08 10:12:30;;;;;;;2.15;0.82;;;;;;;;;;4994236;28;20041;-72
2021/04/08 10:14:56;;;;;;;1.38;0.57;;;;;;;;;;4994270;28;20085;-71
2021/04/08 10:17:33;;;;;;;2.67;0.80;;;;;;;;;;4976907;28;20029;-70
2021/04/08 10:19:59;;;;;;;2.25;0.70;;;;;;;;;;4976024;28;20015;-70
2021/04/08 10:22:26;;;;;;;1.75;0.73;;;;;;;;;;4994462;28;20050;-70
2021/04/08 10:24:52;;;;;;;4.03;0.75;;;;;;;;;;4995286;28;20475;-70
2021/04/08 10:27:22;;;;;;;2.47;0.70;;;;;;;;;;4994381;28;20030;-70
2021/04/08 10:29:48;;;;;;;2.33;0.90;;;;;;;;;;4993558;28;20421;-70
2021/04/08 10:32:28;;;;;;;2.60;0.90;;;;;;;;;;4993697;28;20046;-71
2021/04/08 10:34:54;;;;;;;1.75;0.80;;;;;;;;;;4994202;28;20034;-70
2021/04/08 10:37:20;;;;;;;2.38;0.80;;;;;;;;;;4993699;28;20027;-71
2021/04/08 10:39:47;;;;;;;3.20;0.90;;;;;;;;;;4976463;28;20038;-72
2021/04/08 10:42:13;;;;;;;6.07;0.60;;;;;;;;;;4976418;28;20156;-70
2021/04/08 10:44:39;;;;;;;4.82;0.70;;;;;;;;;;4993693;28;20513;-71
2021/04/08 10:47:09;;;;;;;1.95;0.73;;;;;;;;;;4993655;28;20044;-74
2021/04/08 10:49:39;;;;;;;3.75;0.68;;;;;;;;;;4976271;28;20029;-71
2021/04/08 10:52:06;;;;;;;3.03;0.70;;;;;;;;;;4993584;28;20071;-71
2021/04/08 10:54:33;;;;;;;10.25;0.88;;;;;;;;;;4993619;28;20030;-71
2021/04/08 10:57:00;;;;;;;1.20;0.70;;;;;;;;;;4976401;28;20022;-72
2021/04/08 10:59:26;;;;;;;2.70;1.08;;;;;;;;;;4993491;28;20018;-75
2021/04/08 11:01:53;;;;;;;2.25;1.10;;;;;;;;;;4993360;28;20467;-71
2021/04/08 11:04:20;;;;;;;1.80;0.70;;;;;;;;;;4988482;28;20031;-71
2021/04/08 11:06:47;;;;;;;1.73;0.70;;;;;;;;;;4975696;28;20522;-72
2021/04/08 11:09:20;;;;;;;1.45;0.75;;;;;;;;;;4991892;28;20053;-72
2021/04/08 11:11:46;;;;;;;3.00;0.88;;;;;;;;;;4992975;28;20026;-71
2021/04/08 11:14:20;;;;;;;2.25;0.88;;;;;;;;;;4975856;28;20085;-74
2021/04/08 11:16:46;;;;;;;1.08;0.60;;;;;;;;;;4975269;28;20034;-74
2021/04/08 11:19:13;;;;;;;2.70;0.95;;;;;;;;;;4975332;28;20360;-71
2021/04/08 11:21:39;;;;;;;2.03;0.63;;;;;;;;;;4992752;28;20046;-71
2021/04/08 11:24:05;;;;;;;3.35;0.70;;;;;;;;;;4992696;28;20176;-70
2021/04/08 11:26:32;;;;;;;3.83;0.98;;;;;;;;;;4992191;28;20026;-72
2021/04/08 11:28:58;;;;;;;10.07;1.65;;;;;;;;;;4975008;28;20093;-71
2021/04/08 11:31:25;;;;;;;9.38;1.40;;;;;;;;;;4975166;28;20022;-71
2021/04/08 11:33:59;;;;;;;8.00;1.60;;;;;;;;;;4992488;28;20177;-71
2021/04/08 11:36:26;;;;;;;9.70;2.28;;;;;;;;;;4974543;28;20126;-71
2021/04/08 11:38:53;;;;;;;7.22;1.80;;;;;;;;;;4975276;28;20026;-71
2021/04/08 11:41:19;;;;;;;9.50;1.38;;;;;;;;;;4992246;28;20034;-71
2021/04/08 11:43:46;;;;;;;16.65;1.75;;;;;;;;;;4992509;28;20479;-71
2021/04/08 11:46:24;;;;;;;9.27;1.85;;;;;;;;;;4982772;28;20039;-72
2021/04/08 11:48:50;;;;;;;18.65;2.10;;;;;;;;;;4989990;28;20081;-76
2021/04/08 11:51:19;;;;;;;21.98;1.58;;;;;;;;;;4987411;28;20022;-75
2021/04/08 11:53:45;;;;;;;7.53;1.50;;;;;;;;;;4978046;28;20038;-74
2021/04/08 11:56:34;;;;;;;10.68;1.40;;;;;;;;;;4990984;28;20014;-75
2021/04/08 11:59:14;;;;;;;8.02;1.50;;;;;;;;;;4964121;28;20121;-75
2021/04/08 12:01:41;;;;;;;6.72;1.30;;;;;;;;;;4991340;28;20093;-74
2021/04/08 12:04:24;;;;;;;5.10;1.58;;;;;;;;;;4989069;28;20023;-76
2021/04/08 12:07:06;;;;;;;6.90;1.10;;;;;;;;;;4991450;28;20014;-75
2021/04/08 12:09:59;;;;;;;4.32;1.00;;;;;;;;;;4991539;28;20026;-75
2021/04/08 12:12:25;;;;;;;;;;;;;;;;;;4988013;28;20082;-75
2021/04/08 12:15:04;;;;;;;6.80;1.45;;;;;;;;;;4973768;28;19952;-75
2021/04/08 12:17:32;;;;;;;4.10;1.27;;;;;;;;;;4991121;28;20458;-75
2021/04/08 12:20:17;;;;;;;4.20;1.02;;;;;;;;;;4991404;28;20721;-74
2021/04/08 12:22:43;;;;;;;7.43;1.38;;;;;;;;;;4991278;28;20041;-74
2021/04/08 12:25:10;;;;;;;4.13;0.90;;;;;;;;;;4991447;28;20491;-74
2021/04/08 12:27:37;;;;;;;10.02;1.40;;;;;;;;;;4994904;28;20509;-74
2021/04/08 12:30:04;;;;;;;3.58;0.98;;;;;;;;;;4995436;28;20023;-74
2021/04/08 12:32:31;;;;;;;5.32;1.13;;;;;;;;;;4977571;28;20026;-74
2021/04/08 12:34:57;;;;;;;4.43;1.30;;;;;;;;;;4994054;28;20038;-75
2021/04/08 12:37:25;;;;;;;18.98;1.70;;;;;;;;;;4994261;28;20038;-74
2021/04/08 12:39:51;;;;;;;11.52;1.40;;;;;;;;;;4998669;28;20048;-73
2021/04/08 12:42:17;;;;;;;10.00;1.77;;;;;;;;;;5006521;28;20022;-75
2021/04/08 12:44:43;;;;;;;28.77;2.00;;;;;;;;;;4996908;28;20038;-76
2021/04/08 12:47:11;;;;;;;26.42;2.45;;;;;;;;;;4990944;28;20026;-73
2021/04/08 12:49:37;;;;;;;18.33;1.83;;;;;;;;;;4987192;28;20595;-71
2021/04/08 12:52:03;;;;;;;13.73;1.52;;;;;;;;;;4990762;28;20137;-73
2021/04/08 12:54:33;;;;;;;17.20;1.90;;;;;;;;;;4998507;28;20549;-74
2021/04/08 12:56:59;;;;;;;7.90;1.05;;;;;;;;;;4977626;28;20030;-73
2021/04/08 12:59:25;;;;;;;16.33;1.75;;;;;;;;;;4992419;28;20054;-74
2021/04/08 13:01:51;;;;;;;7.32;1.38;;;;;;;;;;4981533;28;20073;-75
2021/04/08 13:04:17;;;;;;;12.38;1.75;;;;;;;;;;5006311;28;20026;-73
2021/04/08 13:06:43;;;;;;;10.50;1.10;;;;;;;;;;5003069;28;20581;-72
2021/04/08 13:09:09;;;;;;;5.38;1.35;;;;;;;;;;5002556;28;20045;-72
2021/04/08 13:11:38;;;;;;;8.90;1.13;;;;;;;;;;4994284;28;20034;-74
2021/04/08 13:14:04;;;;;;;11.48;1.45;;;;;;;;;;4976994;28;20026;-73
2021/04/08 13:16:30;;;;;;;15.50;1.42;;;;;;;;;;4977380;28;20018;-74
2021/04/08 13:18:56;;;;;;;10.13;1.20;;;;;;;;;;4984924;28;20022;-75
2021/04/08 13:21:22;;;;;;;13.18;1.52;;;;;;;;;;4994539;28;20038;-74
2021/04/08 13:23:48;;;;;;;5.65;1.48;;;;;;;;;;5013418;28;20383;-75
2021/04/08 13:26:14;;;;;;;10.63;2.05;;;;;;;;;;4998290;28;20054;-75
2021/04/08 13:28:40;;;;;;;7.60;1.13;;;;;;;;;;4995522;28;20033;-73
2021/04/08 13:31:06;;;;;;;12.77;1.40;;;;;;;;;;4986785;28;20036;-75
2021/04/08 13:33:32;;;;;;;7.97;1.00;;;;;;;;;;4994255;28;20058;-76
2021/04/08 13:35:58;;;;;;;3.83;1.15;;;;;;;;;;4989187;28;20038;-71
2021/04/08 13:38:24;;;;;;;5.75;1.10;;;;;;;;;;4991256;28;20097;-73
2021/04/08 13:40:50;;;;;;;11.20;1.40;;;;;;;;;;4993083;28;20030;-75
2021/04/08 13:43:16;;;;;;;5.55;0.88;;;;;;;;;;4993186;28;20113;-76
2021/04/08 13:45:42;;;;;;;10.98;1.58;;;;;;;;;;4992967;28;20418;-77
2021/04/08 13:48:08;;;;;;;5.45;1.20;;;;;;;;;;4975262;28;20037;-74
2021/04/08 13:50:35;;;;;;;5.65;1.20;;;;;;;;;;4992735;28;20023;-74
2021/04/08 13:53:01;;;;;;;3.85;1.25;;;;;;;;;;4992707;28;20042;-77
2021/04/08 13:55:27;;;;;;;8.00;1.20;;;;;;;;;;4993081;28;20387;-76
2021/04/08 13:57:53;;;;;;;5.82;0.93;;;;;;;;;;4992875;28;20026;-73
2021/04/08 14:00:21;;;;;;;3.47;0.85;;;;;;;;;;4992770;28;20100;-73
2021/04/08 14:02:47;;;;;;;2.65;0.80;;;;;;;;;;4995547;28;20034;-72
2021/04/08 14:05:14;;;;;;;4.47;0.80;;;;;;;;;;4991449;28;20494;-74
2021/04/08 14:07:41;;;;;;;6.25;0.90;;;;;;;;;;4975298;28;20117;-72
2021/04/08 14:10:08;;;;;;;8.63;0.98;;;;;;;;;;4974874;28;20026;-73
2021/04/08 14:12:35;;;;;;;2.83;0.70;;;;;;;;;;4992692;28;20068;-73
2021/04/08 14:15:01;;;;;;;4.25;1.00;;;;;;;;;;4996907;28;20026;-74
2021/04/08 14:17:27;;;;;;;10.73;1.60;;;;;;;;;;4992488;28;20022;-73
2021/04/08 14:19:54;;;;;;;8.20;1.40;;;;;;;;;;4976581;28;20471;-72
2021/04/08 14:22:20;;;;;;;4.95;0.90;;;;;;;;;;4989492;28;20042;-71
2021/04/08 14:24:46;;;;;;;6.47;1.10;;;;;;;;;;4972282;28;20505;-76
2021/04/08 14:27:12;;;;;;;26.42;2.08;;;;;;;;;;4986275;28;20049;-77
2021/04/08 14:29:38;;;;;;;15.27;1.40;;;;;;;;;;4992525;28;20553;-76
2021/04/08 14:32:05;;;;;;;4.60;0.90;;;;;;;;;;4993809;28;20058;-75
2021/04/08 14:34:31;;;;;;;8.95;1.52;;;;;;;;;;4994338;28;20034;-72
2021/04/08 14:36:58;;;;;;;3.55;0.85;;;;;;;;;;4998659;28;20057;-73
2021/04/08 14:39:24;;;;;;;10.52;0.98;;;;;;;;;;5006874;28;20033;-76
2021/04/08 14:41:51;;;;;;;8.40;0.95;;;;;;;;;;4993110;28;20034;-73
2021/04/08 14:44:17;;;;;;;10.95;1.10;;;;;;;;;;4980372;28;20021;-76
2021/04/08 14:46:43;;;;;;;6.80;1.13;;;;;;;;;;4983088;28;20360;-76
2021/04/08 14:49:09;;;;;;;2.97;0.88;;;;;;;;;;4981122;28;20027;-74